Time;durP1;ratioP1;P1;durP2;ratioP2;P2;SDS_P1;SDS_P2;PMS_P1;PMS_P2;Temp;Humidity;BMP_temperature;BMP_pressure;BME280_temperature;BME280_humidity;BME280_pressure;Samples;Min_cycle;Max_cycle;Signal;HPM_P1;HPM_P2
2023/08/20 00:00:40;;;;;;;6.82;4.70;;;;;;;20.24;54.69;95059.41;5117076;27;20552;-72
2023/08/20 00:03:12;;;;;;;6.53;4.80;;;;;;;20.15;54.65;95047.31;5132658;27;20035;-73
2023/08/20 00:05:38;;;;;;;5.72;4.95;;;;;;;20.24;54.78;95058.59;5116822;27;20035;-72
2023/08/20 00:08:04;;;;;;;6.18;4.80;;;;;;;20.25;54.31;95052.28;5133863;27;20041;-72
2023/08/20 00:10:30;;;;;;;6.68;4.78;;;;;;;20.36;54.25;95066.88;5129060;27;20106;-72
2023/08/20 00:12:55;;;;;;;6.03;5.00;;;;;;;20.20;54.42;95062.59;5113184;28;20481;-72
2023/08/20 00:15:26;;;;;;;8.73;5.28;;;;;;;20.34;54.44;95071.50;5113352;28;20046;-72
2023/08/20 00:17:51;;;;;;;;;;;;;;;20.38;54.37;95063.03;5113478;28;20028;-72
2023/08/20 00:20:17;;;;;;;5.80;4.80;;;;;;;20.35;54.06;95059.97;5128953;27;19916;-72
2023/08/20 00:22:44;;;;;;;8.55;5.03;;;;;;;20.24;54.28;95054.13;5111779;28;20552;-72
2023/08/20 00:25:11;;;;;;;6.07;4.97;;;;;;;20.31;54.36;95062.97;5096339;28;20417;-72
2023/08/20 00:27:36;;;;;;;6.63;5.43;;;;;;;20.30;54.27;95065.75;5112903;28;20035;-72
2023/08/20 00:30:02;;;;;;;7.15;5.50;;;;;;;20.30;54.43;95053.41;5109353;27;20482;-72
2023/08/20 00:32:28;;;;;;;6.45;5.30;;;;;;;20.25;54.82;95070.75;5116376;27;20079;-72
2023/08/20 00:34:53;;;;;;;6.55;4.80;;;;;;;20.23;54.73;95070.97;5127655;27;20583;-72
2023/08/20 00:37:18;;;;;;;6.70;5.25;;;;;;;20.29;54.40;95074.69;5112712;28;20088;-72
2023/08/20 00:39:44;;;;;;;6.50;5.40;;;;;;;20.38;54.07;95070.97;5131316;27;20038;-73
2023/08/20 00:42:10;;;;;;;6.03;5.10;;;;;;;20.33;54.54;95068.03;5115909;27;20034;-73
2023/08/20 00:44:35;;;;;;;7.53;5.70;;;;;;;20.38;54.24;95073.59;5134611;27;20076;-72
2023/08/20 00:47:02;;;;;;;6.43;5.57;;;;;;;20.40;54.08;95050.50;5132879;27;20482;-73
2023/08/20 00:49:28;;;;;;;6.93;5.78;;;;;;;20.36;54.25;95054.47;5133044;27;20055;-72
2023/08/20 00:51:53;;;;;;;9.32;5.80;;;;;;;20.31;54.47;95059.50;5133033;27;20024;-72
2023/08/20 00:54:19;;;;;;;8.65;5.57;;;;;;;20.16;54.75;95048.13;5115637;27;20050;-72
2023/08/20 00:56:45;;;;;;;7.50;5.72;;;;;;;20.24;54.35;95062.03;5088226;28;20032;-72
2023/08/20 00:59:10;;;;;;;8.05;5.47;;;;;;;20.24;54.24;95059.41;5095271;28;20042;-72
2023/08/20 01:01:36;;;;;;;7.38;5.97;;;;;;;20.24;54.27;95055.94;5112784;28;20047;-72
2023/08/20 01:04:01;;;;;;;6.40;5.75;;;;;;;20.25;54.35;95042.59;5095172;28;20093;-72
2023/08/20 01:06:37;;;;;;;7.43;5.68;;;;;;;20.35;54.10;95055.50;5094201;28;20024;-72
2023/08/20 01:09:06;;;;;;;7.25;6.30;;;;;;;20.35;53.83;95057.31;5111881;28;20035;-72
2023/08/20 01:11:37;;;;;;;6.45;5.70;;;;;;;20.42;53.64;95052.94;5095261;28;20077;-73
2023/08/20 01:14:03;;;;;;;6.55;5.85;;;;;;;20.38;53.73;95047.22;5097408;27;20027;-72
2023/08/20 01:16:28;;;;;;;8.55;6.05;;;;;;;20.52;53.42;95049.03;5115365;27;20458;-72
2023/08/20 01:18:54;;;;;;;8.52;5.78;;;;;;;20.50;53.84;95050.22;5115224;27;20019;-72
2023/08/20 01:21:41;;;;;;;7.30;6.00;;;;;;;20.56;53.33;95046.91;5133600;27;20038;-72
2023/08/20 01:24:25;;;;;;;9.60;6.10;;;;;;;20.42;53.56;95043.22;5114814;27;20030;-72
2023/08/20 01:27:18;;;;;;;6.82;5.90;;;;;;;20.59;53.60;95043.03;5132498;27;20118;-72
2023/08/20 01:29:43;;;;;;;6.72;6.03;;;;;;;20.59;53.50;95051.81;5132289;27;20041;-72
2023/08/20 01:32:09;;;;;;;8.35;6.50;;;;;;;20.62;53.60;95063.81;5128115;27;20028;-72
2023/08/20 01:34:34;;;;;;;8.55;6.50;;;;;;;20.71;53.10;95060.06;5097656;27;20477;-73
2023/08/20 01:36:59;;;;;;;8.80;6.20;;;;;;;20.70;53.17;95053.16;5132417;27;20481;-72
2023/08/20 01:39:25;;;;;;;8.90;6.13;;;;;;;20.67;53.09;95045.59;5133332;27;20027;-72
2023/08/20 01:41:50;;;;;;;7.90;6.00;;;;;;;20.59;53.23;95040.41;5113821;27;20039;-72
2023/08/20 01:44:16;;;;;;;7.18;6.22;;;;;;;20.39;53.78;95027.75;5131930;27;20496;-72
2023/08/20 01:46:41;;;;;;;7.32;5.93;;;;;;;20.56;54.13;95032.88;5132002;27;20031;-72
2023/08/20 01:49:06;;;;;;;7.00;5.93;;;;;;;20.47;54.53;95030.28;5131671;27;20019;-72
2023/08/20 01:51:32;;;;;;;6.28;5.68;;;;;;;20.55;53.68;95031.22;5131457;27;20034;-72
2023/08/20 01:53:57;;;;;;;8.20;5.75;;;;;;;20.35;54.97;95031.75;5132897;27;20727;-72
2023/08/20 01:56:23;;;;;;;7.32;6.03;;;;;;;20.32;55.25;95024.22;5131688;27;20023;-72
2023/08/20 01:58:48;;;;;;;6.95;6.20;;;;;;;20.36;55.48;95025.47;5114540;27;20054;-72
2023/08/20 02:01:13;;;;;;;7.53;6.00;;;;;;;20.41;55.29;95033.66;5110276;28;20081;-72
2023/08/20 02:03:39;;;;;;;6.97;6.05;;;;;;;20.40;55.70;95037.31;5112074;28;20031;-73
2023/08/20 02:06:04;;;;;;;7.97;6.10;;;;;;;20.16;56.01;95029.66;5094063;28;20579;-72
2023/08/20 02:08:30;;;;;;;9.88;6.32;;;;;;;20.04;56.35;95024.81;5114143;27;20023;-73
2023/08/20 02:11:02;;;;;;;6.20;5.60;;;;;;;19.88;56.83;95021.53;5133141;27;20023;-72
2023/08/20 02:13:27;;;;;;;7.90;6.43;;;;;;;19.77;56.76;95022.78;5130545;27;20102;-72
2023/08/20 02:16:00;;;;;;;6.82;6.13;;;;;;;19.58;57.26;95011.69;5114493;27;20031;-72
2023/08/20 02:18:26;;;;;;;7.82;6.47;;;;;;;19.51;57.39;95005.50;5113178;27;20045;-72
2023/08/20 02:20:51;;;;;;;7.10;6.05;;;;;;;19.41;57.78;95007.56;5114259;27;20023;-72
2023/08/20 02:23:16;;;;;;;6.90;6.00;;;;;;;19.39;57.71;95001.66;5132536;27;20402;-73
2023/08/20 02:25:43;;;;;;;7.88;6.57;;;;;;;19.36;58.06;95017.81;5132889;27;20388;-73
2023/08/20 02:28:09;;;;;;;7.03;6.18;;;;;;;19.36;58.15;95017.81;5130700;27;20110;-73
2023/08/20 02:30:42;;;;;;;9.50;6.38;;;;;;;19.29;57.98;95019.53;5113947;27;20102;-72
2023/08/20 02:33:07;;;;;;;7.32;5.97;;;;;;;19.27;57.74;95013.59;5097452;27;20126;-72
2023/08/20 02:35:33;;;;;;;8.82;6.45;;;;;;;19.33;57.72;95015.53;5122132;27;20039;-72
2023/08/20 02:37:59;;;;;;;7.75;6.22;;;;;;;19.30;57.44;95000.06;5130982;27;20035;-73
2023/08/20 02:40:24;;;;;;;10.45;6.38;;;;;;;19.29;57.68;95001.09;5131155;27;20031;-73
2023/08/20 02:42:49;;;;;;;7.35;5.75;;;;;;;19.36;58.27;94984.41;5132063;27;20034;-73
2023/08/20 02:45:15;;;;;;;7.60;6.28;;;;;;;19.46;58.35;95007.84;5131025;27;20488;-73
2023/08/20 02:47:40;;;;;;;6.90;5.90;;;;;;;19.32;58.05;95004.16;5097016;27;20027;-73
2023/08/20 02:50:06;;;;;;;7.35;5.95;;;;;;;19.25;58.53;95018.22;5132044;27;20028;-73
2023/08/20 02:52:31;;;;;;;7.13;6.20;;;;;;;19.08;59.21;94999.88;5096647;27;20614;-72
2023/08/20 02:54:57;;;;;;;7.47;6.55;;;;;;;19.08;58.85;95018.31;5130902;27;20023;-72
2023/08/20 02:57:22;;;;;;;6.53;5.85;;;;;;;19.05;58.95;95007.31;5131963;27;20503;-73
2023/08/20 02:59:47;;;;;;;7.10;6.22;;;;;;;19.02;59.84;95013.75;5130941;27;20054;-72
2023/08/20 03:02:13;;;;;;;7.63;6.43;;;;;;;18.90;59.19;95017.78;5130354;27;20028;-72
2023/08/20 03:04:38;;;;;;;6.13;5.53;;;;;;;19.04;59.00;95017.03;5110418;27;20038;-72
2023/08/20 03:07:04;;;;;;;7.55;6.38;;;;;;;18.82;59.29;95013.38;5110103;28;20028;-72
2023/08/20 03:09:29;;;;;;;7.55;6.38;;;;;;;18.87;60.14;95023.41;5110124;28;20398;-72
2023/08/20 03:11:55;;;;;;;6.35;5.65;;;;;;;18.89;60.00;95024.06;5113748;28;20035;-73
2023/08/20 03:14:20;;;;;;;7.05;5.97;;;;;;;18.71;59.87;95024.25;5130485;28;20038;-72
2023/08/20 03:16:46;;;;;;;6.90;5.88;;;;;;;18.70;59.67;95020.81;5131852;27;20481;-72
2023/08/20 03:19:14;;;;;;;7.80;5.90;;;;;;;18.85;59.20;95022.75;5130395;27;20434;-72
2023/08/20 03:21:40;;;;;;;7.00;5.80;;;;;;;18.86;58.91;95009.44;5112411;28;20039;-72
2023/08/20 03:24:06;;;;;;;6.68;5.97;;;;;;;18.86;59.03;95019.09;5131220;27;20034;-73
2023/08/20 03:26:31;;;;;;;6.25;5.65;;;;;;;18.89;59.22;95013.53;5134608;27;20023;-72
2023/08/20 03:28:57;;;;;;;6.47;5.88;;;;;;;18.84;59.61;94995.63;5134570;27;20401;-72
2023/08/20 03:31:23;;;;;;;7.57;5.93;;;;;;;18.88;59.58;95010.06;5117912;27;20043;-73
2023/08/20 03:33:48;;;;;;;8.40;5.90;;;;;;;18.89;59.49;95005.63;5113875;28;20028;-72
2023/08/20 03:36:14;;;;;;;7.85;6.68;;;;;;;18.79;60.02;95011.09;5132239;27;20035;-73
2023/08/20 03:38:39;;;;;;;6.85;6.07;;;;;;;18.80;59.71;95009.28;5115450;27;20080;-73
2023/08/20 03:41:04;;;;;;;6.63;5.85;;;;;;;18.79;59.85;95010.28;5134384;27;20464;-73
2023/08/20 03:43:30;;;;;;;7.75;6.35;;;;;;;18.63;59.91;94995.34;5117419;27;20489;-72
2023/08/20 03:45:55;;;;;;;7.60;6.00;;;;;;;18.40;61.18;95005.81;5117429;27;20080;-73
2023/08/20 03:48:21;;;;;;;6.57;5.97;;;;;;;18.30;60.63;94993.72;5133073;27;20035;-72
2023/08/20 03:50:46;;;;;;;6.85;6.18;;;;;;;18.45;61.00;95000.88;5117234;27;20158;-72
2023/08/20 03:53:12;;;;;;;8.55;6.05;;;;;;;18.23;61.59;95002.44;5133985;27;20055;-72
2023/08/20 03:55:37;;;;;;;6.32;5.43;;;;;;;18.25;61.80;94996.03;5134099;27;20035;-73
2023/08/20 03:58:03;;;;;;;7.20;5.72;;;;;;;18.23;62.02;95005.88;5132579;27;20045;-73
2023/08/20 04:00:28;;;;;;;9.80;6.53;;;;;;;18.28;62.14;95008.00;5134256;27;20111;-72
2023/08/20 04:02:54;;;;;;;6.55;5.55;;;;;;;18.29;61.49;94996.50;5135283;27;20220;-72
2023/08/20 04:05:19;;;;;;;6.75;5.80;;;;;;;18.43;60.58;95001.03;5134067;27;20027;-72
2023/08/20 04:07:45;;;;;;;7.40;6.00;;;;;;;18.40;60.61;95004.00;5133157;27;20469;-72
2023/08/20 04:10:10;;;;;;;6.32;5.72;;;;;;;18.50;61.02;95001.19;5133906;27;20087;-72
2023/08/20 04:12:35;;;;;;;7.50;5.80;;;;;;;18.45;61.04;94990.34;5126561;27;20039;-73
2023/08/20 04:15:01;;;;;;;6.28;5.68;;;;;;;18.59;60.66;94994.06;5105323;27;20032;-73
2023/08/20 04:17:26;;;;;;;6.60;5.85;;;;;;;18.49;61.40;95007.41;5116543;27;20036;-73
2023/08/20 04:19:52;;;;;;;6.40;5.72;;;;;;;18.51;61.52;95002.81;5115077;27;20016;-72
2023/08/20 04:22:17;;;;;;;6.63;5.93;;;;;;;18.37;62.10;94995.66;5112971;28;20036;-72
2023/08/20 04:24:43;;;;;;;8.38;5.68;;;;;;;18.58;61.45;95001.13;5119377;27;20031;-72
2023/08/20 04:27:08;;;;;;;7.68;5.75;;;;;;;18.60;61.62;95004.41;5116025;27;20023;-73
2023/08/20 04:29:33;;;;;;;7.15;5.53;;;;;;;18.57;61.81;95011.84;5133190;27;20038;-72
2023/08/20 04:31:59;;;;;;;6.20;5.60;;;;;;;18.58;61.28;95006.38;5116534;27;20463;-73
2023/08/20 04:34:24;;;;;;;6.38;5.70;;;;;;;18.68;61.63;94996.47;5119162;27;20026;-77
2023/08/20 04:36:51;;;;;;;8.52;5.95;;;;;;;18.74;61.67;95006.34;5112025;28;20039;-74
2023/08/20 04:39:17;;;;;;;6.38;5.60;;;;;;;18.84;61.55;95005.31;5095925;28;20035;-72
2023/08/20 04:41:42;;;;;;;6.90;5.82;;;;;;;18.90;61.52;95002.81;5114977;27;20028;-71
2023/08/20 04:44:08;;;;;;;7.63;5.43;;;;;;;18.84;61.52;95010.59;5114237;27;20409;-72
2023/08/20 04:46:33;;;;;;;6.13;5.32;;;;;;;18.81;61.75;95018.84;5112377;27;20034;-77
2023/08/20 04:48:58;;;;;;;6.97;5.40;;;;;;;19.01;61.82;95012.13;5112376;28;20027;-72
2023/08/20 04:51:24;;;;;;;6.88;5.68;;;;;;;18.93;61.51;95009.53;5119532;27;20034;-72
2023/08/20 04:53:49;;;;;;;6.13;5.43;;;;;;;18.97;62.21;95010.81;5118234;27;20406;-72
2023/08/20 04:56:15;;;;;;;8.60;5.82;;;;;;;19.13;61.48;95002.81;5111279;28;20043;-74
2023/08/20 04:58:40;;;;;;;6.20;5.25;;;;;;;19.29;61.54;95014.25;5112598;27;20100;-72
2023/08/20 05:01:06;;;;;;;6.95;5.60;;;;;;;18.90;62.41;95002.00;5121712;27;20097;-81
2023/08/20 05:03:31;;;;;;;7.55;5.70;;;;;;;19.30;61.56;95010.59;5116652;27;20027;-83
2023/08/20 05:05:57;;;;;;;8.40;5.88;;;;;;;19.40;60.94;94996.22;5103622;28;20028;-74
2023/08/20 05:08:22;;;;;;;8.95;6.13;;;;;;;19.47;61.16;95006.03;5113984;27;20034;-76
2023/08/20 05:10:49;;;;;;;8.43;5.93;;;;;;;19.52;60.47;95003.69;5115200;27;20032;-76
2023/08/20 05:13:15;;;;;;;6.75;5.85;;;;;;;19.76;60.64;95015.88;5104221;27;20092;-76
2023/08/20 05:15:40;;;;;;;6.50;5.90;;;;;;;20.09;58.54;95014.56;5127476;27;20427;-75
2023/08/20 05:18:06;;;;;;;9.07;5.97;;;;;;;20.17;58.37;95012.81;5124165;27;20108;-75
2023/08/20 05:20:31;;;;;;;8.48;6.03;;;;;;;20.41;58.05;95022.28;5115193;27;20058;-74
2023/08/20 05:22:56;;;;;;;6.70;6.00;;;;;;;20.81;57.63;95010.47;5130450;27;20046;-74
2023/08/20 05:25:22;;;;;;;8.00;6.15;;;;;;;21.05;57.20;95019.03;5130802;27;20023;-74
2023/08/20 05:27:47;;;;;;;7.82;6.07;;;;;;;21.19;56.33;95023.44;5114440;27;20023;-74
2023/08/20 05:30:13;;;;;;;10.20;6.45;;;;;;;21.38;55.78;95027.34;5132168;27;20473;-74
2023/08/20 05:32:38;;;;;;;8.23;6.07;;;;;;;21.63;55.22;95025.13;5131225;27;20054;-74
2023/08/20 05:35:04;;;;;;;10.93;6.97;;;;;;;21.85;54.32;95029.38;5132010;27;20031;-74
2023/08/20 05:37:29;;;;;;;9.63;6.43;;;;;;;22.04;53.73;95032.38;5113391;27;20027;-74
2023/08/20 05:39:55;;;;;;;8.63;6.38;;;;;;;22.22;53.00;95027.44;5096596;27;20031;-74
2023/08/20 05:42:20;;;;;;;11.80;6.32;;;;;;;22.61;52.36;95035.81;5130104;27;20038;-74
2023/08/20 05:44:46;;;;;;;9.68;6.07;;;;;;;22.59;51.99;95025.41;5132125;27;20057;-75
2023/08/20 05:47:11;;;;;;;11.02;6.53;;;;;;;22.67;51.74;95027.88;5113038;27;20042;-74
2023/08/20 05:49:36;;;;;;;8.50;6.57;;;;;;;22.88;51.01;95028.81;5097661;27;20027;-74
2023/08/20 05:52:02;;;;;;;9.38;6.60;;;;;;;23.05;50.68;95021.34;5133433;27;20027;-74
2023/08/20 05:54:27;;;;;;;9.48;6.57;;;;;;;23.14;50.60;95042.16;5132070;27;20050;-74
2023/08/20 05:56:53;;;;;;;11.48;6.75;;;;;;;23.26;50.12;95034.44;5132040;27;20072;-74
2023/08/20 05:59:18;;;;;;;9.07;6.72;;;;;;;23.26;49.71;95037.09;5114722;27;20393;-74
2023/08/20 06:01:45;;;;;;;6.75;5.95;;;;;;;23.44;49.41;95044.47;5133551;27;20462;-74
2023/08/20 06:04:10;;;;;;;7.60;6.80;;;;;;;23.33;49.56;95037.13;5131838;27;20027;-74
2023/08/20 06:06:36;;;;;;;8.52;5.95;;;;;;;23.66;49.35;95023.09;5133046;27;20488;-74
2023/08/20 06:09:01;;;;;;;9.63;6.10;;;;;;;23.48;49.06;95035.09;5114321;27;20031;-74
2023/08/20 06:11:26;;;;;;;9.35;6.03;;;;;;;23.82;48.54;95035.97;5131745;27;20076;-74
2023/08/20 06:13:52;;;;;;;9.05;6.00;;;;;;;23.69;48.59;95033.31;5131861;27;20046;-74
2023/08/20 06:16:17;;;;;;;11.55;7.20;;;;;;;23.54;49.23;95034.31;5114383;27;20499;-74
2023/08/20 06:18:43;;;;;;;7.15;6.18;;;;;;;23.75;49.38;95040.47;5114048;27;20426;-74
2023/08/20 06:21:08;;;;;;;10.45;6.22;;;;;;;23.68;49.43;95036.97;5114122;27;20028;-74
2023/08/20 06:23:34;;;;;;;10.80;6.65;;;;;;;23.76;49.74;95040.25;5130988;27;20031;-74
2023/08/20 06:25:59;;;;;;;9.00;6.53;;;;;;;23.74;49.63;95047.63;5131174;27;20023;-74
2023/08/20 06:28:24;;;;;;;10.55;6.60;;;;;;;23.85;50.09;95046.19;5113975;27;20402;-74
2023/08/20 06:30:50;;;;;;;11.23;7.40;;;;;;;23.80;49.75;95033.53;5132739;27;20031;-74
2023/08/20 06:33:15;;;;;;;10.23;6.15;;;;;;;23.97;49.88;95039.25;5130988;27;20043;-74
2023/08/20 06:35:42;;;;;;;10.20;6.60;;;;;;;23.99;49.81;95053.13;5132637;27;20038;-74
2023/08/20 06:38:07;;;;;;;7.78;6.75;;;;;;;24.09;49.61;95048.22;5132061;27;20038;-74
2023/08/20 06:40:33;;;;;;;7.85;6.80;;;;;;;24.24;49.75;95044.56;5113881;27;20031;-74
2023/08/20 06:42:58;;;;;;;10.70;6.55;;;;;;;24.48;48.63;95051.06;5130648;27;20039;-76
2023/08/20 06:45:23;;;;;;;7.45;6.47;;;;;;;24.92;47.72;95052.97;5113772;27;20043;-75
2023/08/20 06:47:49;;;;;;;7.80;6.65;;;;;;;25.21;46.39;95050.81;5131910;27;20031;-75
2023/08/20 06:50:14;;;;;;;9.23;6.63;;;;;;;25.47;46.26;95047.22;5130761;27;20454;-75
2023/08/20 06:52:40;;;;;;;7.05;6.10;;;;;;;25.76;45.70;95045.00;5131548;27;20051;-74
2023/08/20 06:55:05;;;;;;;7.90;6.72;;;;;;;25.73;45.44;95043.56;5113616;27;20042;-75
2023/08/20 06:57:31;;;;;;;10.20;6.68;;;;;;;25.69;45.19;95046.91;5113497;28;20046;-75
2023/08/20 06:59:56;;;;;;;9.45;5.95;;;;;;;26.07;44.75;95044.16;5131189;27;20076;-75
2023/08/20 07:02:22;;;;;;;11.45;6.40;;;;;;;25.89;44.35;95044.13;5131530;27;20034;-75
2023/08/20 07:04:47;;;;;;;7.40;5.75;;;;;;;25.93;43.69;95038.13;5130660;27;20023;-75
2023/08/20 07:07:14;;;;;;;9.35;5.53;;;;;;;26.03;43.12;95042.97;5113343;28;20039;-75
2023/08/20 07:09:40;;;;;;;7.88;5.30;;;;;;;26.03;43.13;95025.16;5130810;28;20026;-75
2023/08/20 07:12:05;;;;;;;6.53;5.43;;;;;;;26.13;42.62;95029.97;5130425;27;20031;-74
2023/08/20 07:14:31;;;;;;;10.23;5.20;;;;;;;25.99;42.60;95036.44;5130335;28;20097;-74
2023/08/20 07:16:56;;;;;;;7.00;5.13;;;;;;;25.94;42.28;95028.31;5131563;27;20035;-74
2023/08/20 07:19:22;;;;;;;6.22;4.82;;;;;;;26.04;42.31;95039.28;5130391;28;20076;-74
2023/08/20 07:21:47;;;;;;;6.05;4.90;;;;;;;26.17;42.07;95043.69;5113210;28;20039;-74
2023/08/20 07:24:13;;;;;;;6.43;4.50;;;;;;;26.67;40.74;95047.09;5113203;28;20045;-74
2023/08/20 07:26:38;;;;;;;8.38;4.60;;;;;;;26.89;40.17;95052.00;5131618;27;20425;-74
2023/08/20 07:29:04;;;;;;;7.35;4.80;;;;;;;27.00;39.71;95040.59;5131531;27;20023;-74
2023/08/20 07:31:31;;;;;;;6.15;4.68;;;;;;;26.59;40.23;95031.41;5130358;28;20031;-74
2023/08/20 07:33:57;;;;;;;8.27;4.65;;;;;;;26.93;40.17;95037.97;5130316;28;20035;-74
2023/08/20 07:36:23;;;;;;;5.47;4.30;;;;;;;27.14;40.15;95038.56;5130290;28;20034;-74
2023/08/20 07:38:48;;;;;;;8.73;4.68;;;;;;;27.02;39.95;95043.81;5113208;28;20019;-74
2023/08/20 07:41:14;;;;;;;6.20;4.10;;;;;;;26.84;39.08;95042.00;5096131;28;20039;-74
2023/08/20 07:43:40;;;;;;;5.05;4.47;;;;;;;26.82;39.33;95049.38;5129987;28;20038;-75
2023/08/20 07:46:06;;;;;;;4.85;4.13;;;;;;;27.07;38.97;95038.63;5113081;28;20035;-74
2023/08/20 07:48:31;;;;;;;4.85;4.35;;;;;;;26.99;38.96;95040.78;5112919;28;20020;-74
2023/08/20 07:50:56;;;;;;;5.18;4.57;;;;;;;26.92;38.77;95043.56;5130380;28;20141;-74
2023/08/20 07:53:22;;;;;;;5.03;4.32;;;;;;;27.10;38.93;95038.19;5130055;28;20046;-73
2023/08/20 07:55:47;;;;;;;6.60;4.22;;;;;;;27.46;38.01;95036.50;5130365;28;20031;-73
2023/08/20 07:58:13;;;;;;;5.30;4.20;;;;;;;27.36;38.14;95038.94;5130022;28;20035;-73
2023/08/20 08:00:38;;;;;;;5.50;4.57;;;;;;;27.27;38.22;95033.06;5113231;28;20080;-74
2023/08/20 08:03:04;;;;;;;4.78;4.28;;;;;;;27.52;37.19;95030.25;5130023;28;20028;-74
2023/08/20 08:05:29;;;;;;;5.70;4.35;;;;;;;27.58;37.31;95028.53;5130144;27;20400;-74
2023/08/20 08:07:55;;;;;;;7.57;4.55;;;;;;;27.69;36.73;95029.63;5112914;28;20109;-74
2023/08/20 08:10:20;;;;;;;5.38;3.83;;;;;;;27.63;35.86;95031.34;5132589;27;20031;-74
2023/08/20 08:12:45;;;;;;;6.03;3.78;;;;;;;27.81;35.76;95035.84;5116509;27;20034;-73
2023/08/20 08:15:12;;;;;;;4.47;3.70;;;;;;;27.80;35.70;95036.88;5135166;27;20026;-74
2023/08/20 08:17:37;;;;;;;7.65;4.18;;;;;;;27.88;35.32;95025.06;5133701;27;20488;-74
2023/08/20 08:20:03;;;;;;;4.95;4.07;;;;;;;28.06;35.35;95033.78;5133737;27;20029;-74
2023/08/20 08:22:28;;;;;;;4.55;4.10;;;;;;;28.15;35.21;95028.09;5134658;27;20429;-74
2023/08/20 08:24:53;;;;;;;4.68;4.20;;;;;;;28.21;35.27;95043.19;5134994;27;20027;-73
2023/08/20 08:27:19;;;;;;;5.07;3.78;;;;;;;28.13;34.01;95000.81;5133415;27;20035;-74
2023/08/20 08:29:45;;;;;;;6.40;3.85;;;;;;;28.09;34.58;95037.03;5134851;27;20038;-73
2023/08/20 08:32:10;;;;;;;4.75;4.05;;;;;;;28.28;34.42;95034.03;5116116;27;20043;-73
2023/08/20 08:34:35;;;;;;;6.90;4.13;;;;;;;28.09;34.34;95031.72;5116268;27;20435;-73
2023/08/20 08:37:01;;;;;;;5.70;4.30;;;;;;;28.33;34.36;95033.31;5112424;27;20765;-73
2023/08/20 08:39:26;;;;;;;5.88;4.13;;;;;;;28.37;34.02;95031.81;5111867;28;20457;-74
2023/08/20 08:41:54;;;;;;;6.25;4.00;;;;;;;28.18;34.08;95024.97;5110880;28;20076;-74
2023/08/20 08:44:19;;;;;;;18.17;4.72;;;;;;;28.61;32.13;95026.47;5095211;28;20433;-74
2023/08/20 08:46:45;;;;;;;7.82;3.58;;;;;;;28.53;32.88;95019.66;5094242;28;20035;-74
2023/08/20 08:49:10;;;;;;;7.82;3.90;;;;;;;28.76;32.32;95020.66;5078374;28;20039;-73
2023/08/20 08:51:36;;;;;;;9.85;3.92;;;;;;;28.64;32.66;95026.00;5112254;28;20031;-73
2023/08/20 08:54:02;;;;;;;6.65;4.30;;;;;;;28.83;32.35;95024.81;5095370;28;20057;-74
2023/08/20 08:56:27;;;;;;;5.72;3.78;;;;;;;28.76;30.65;95024.16;5095466;28;20027;-74
2023/08/20 08:58:53;;;;;;;4.72;3.38;;;;;;;28.66;31.26;95034.63;5113516;28;20035;-74
2023/08/20 09:01:19;;;;;;;7.07;3.92;;;;;;;28.61;31.54;95021.97;5095369;28;20032;-74
2023/08/20 09:03:44;;;;;;;5.72;3.67;;;;;;;28.92;31.29;95017.28;5077220;28;20542;-74
2023/08/20 09:06:10;;;;;;;4.35;3.67;;;;;;;28.84;32.25;95012.28;5078299;28;20122;-74
2023/08/20 09:08:35;;;;;;;5.03;3.40;;;;;;;29.21;30.75;95014.63;5113323;28;20077;-74
2023/08/20 09:11:01;;;;;;;5.22;3.40;;;;;;;29.16;30.31;95021.50;5095291;28;20064;-74
2023/08/20 09:13:36;;;;;;;6.40;3.45;;;;;;;29.02;31.00;95022.00;5095057;28;20040;-74
2023/08/20 09:16:09;;;;;;;4.13;3.35;;;;;;;29.00;30.95;95016.06;5113713;27;20028;-74
2023/08/20 09:18:43;;;;;;;4.70;3.03;;;;;;;28.65;30.70;95033.00;5095040;28;20035;-71
2023/08/20 09:21:09;;;;;;;4.68;3.60;;;;;;;28.88;31.38;95030.28;5095189;28;20059;-73
2023/08/20 09:23:35;;;;;;;4.03;3.60;;;;;;;28.87;31.36;95009.13;5112468;28;20023;-73
2023/08/20 09:26:04;;;;;;;4.38;3.50;;;;;;;28.94;32.44;95010.59;5078051;28;20034;-74
2023/08/20 09:28:40;;;;;;;12.35;3.85;;;;;;;29.18;32.00;95018.59;5094949;28;20023;-74
2023/08/20 09:31:05;;;;;;;5.10;3.22;;;;;;;29.31;31.31;95009.47;5112958;27;20084;-74
2023/08/20 09:33:31;;;;;;;4.75;3.90;;;;;;;29.39;31.01;95009.06;5111666;28;20023;-74
2023/08/20 09:35:56;;;;;;;23.42;3.90;;;;;;;29.64;29.70;95014.09;5094705;28;20042;-74
2023/08/20 09:38:23;;;;;;;10.40;3.22;;;;;;;29.53;29.48;95020.31;5094445;28;20035;-74
2023/08/20 09:40:49;;;;;;;7.28;3.20;;;;;;;29.55;28.88;95010.97;5094934;28;20562;-74
2023/08/20 09:43:16;;;;;;;4.20;3.05;;;;;;;29.54;29.52;95003.22;5094536;28;20042;-74
2023/08/20 09:45:41;;;;;;;5.57;3.38;;;;;;;29.34;30.63;95009.00;5111458;28;20080;-74
2023/08/20 09:48:06;;;;;;;4.53;3.10;;;;;;;29.63;29.48;95001.78;5112461;28;20032;-74
2023/08/20 09:50:36;;;;;;;4.70;3.05;;;;;;;29.60;29.67;95004.91;5111573;28;20061;-74
2023/08/20 09:53:06;;;;;;;4.15;2.85;;;;;;;29.79;29.68;95006.34;5111217;28;20063;-74
2023/08/20 09:55:35;;;;;;;5.28;2.75;;;;;;;29.61;28.93;94988.63;5078067;28;20032;-74
2023/08/20 09:58:01;;;;;;;3.10;2.80;;;;;;;29.77;28.40;94992.38;5111109;28;20100;-74
2023/08/20 10:00:26;;;;;;;5.05;2.72;;;;;;;29.75;28.75;95002.50;5094230;28;20513;-74
2023/08/20 10:02:51;;;;;;;5.13;3.17;;;;;;;29.83;28.84;95001.31;5110976;28;20058;-74
2023/08/20 10:05:17;;;;;;;3.28;2.92;;;;;;;29.57;28.57;95000.84;5094101;28;20027;-74
2023/08/20 10:07:42;;;;;;;3.88;3.03;;;;;;;29.56;28.93;95007.28;5110953;28;20036;-75
2023/08/20 10:10:11;;;;;;;4.05;3.08;;;;;;;29.78;28.63;95004.75;5111028;28;20584;-74
2023/08/20 10:12:38;;;;;;;5.55;3.38;;;;;;;29.90;29.68;95001.16;5094137;28;20027;-74
2023/08/20 10:15:04;;;;;;;3.90;3.08;;;;;;;29.83;29.61;94991.41;5110926;28;20026;-74
2023/08/20 10:17:30;;;;;;;4.65;3.33;;;;;;;30.03;29.12;94995.47;5093950;28;20044;-74
2023/08/20 10:19:57;;;;;;;4.82;3.33;;;;;;;30.00;29.80;94995.97;5093966;28;20055;-74
2023/08/20 10:22:22;;;;;;;3.55;3.10;;;;;;;30.02;29.53;94994.66;5110645;28;20523;-74
2023/08/20 10:24:50;;;;;;;3.60;3.17;;;;;;;30.00;29.66;94998.63;5093943;28;20035;-74
2023/08/20 10:27:31;;;;;;;3.80;2.97;;;;;;;30.08;28.96;95000.09;5076905;28;20534;-74
2023/08/20 10:29:56;;;;;;;3.92;3.45;;;;;;;29.88;29.58;94997.91;5110746;28;20036;-74
2023/08/20 10:32:44;;;;;;;4.35;3.30;;;;;;;30.00;29.34;94990.59;5076435;28;20024;-74
2023/08/20 10:35:10;;;;;;;5.50;3.00;;;;;;;29.97;29.66;94997.25;5109952;28;20481;-74
2023/08/20 10:37:37;;;;;;;4.03;3.20;;;;;;;29.97;29.57;94999.13;5093623;28;20024;-74
2023/08/20 10:40:04;;;;;;;4.05;3.33;;;;;;;30.17;28.98;94990.59;5110495;28;20035;-75
2023/08/20 10:42:29;;;;;;;4.80;3.33;;;;;;;30.06;30.84;94989.63;5093543;28;20044;-74
2023/08/20 10:45:05;;;;;;;5.03;3.50;;;;;;;30.09;29.65;94983.81;5093567;28;20408;-74
2023/08/20 10:47:47;;;;;;;5.03;3.15;;;;;;;30.23;29.40;94977.06;5093697;28;20027;-74
2023/08/20 10:50:15;;;;;;;6.93;3.30;;;;;;;30.10;30.32;94976.56;5093763;28;20474;-74
2023/08/20 10:52:41;;;;;;;7.15;3.78;;;;;;;29.99;29.51;94967.56;5093423;28;20051;-74
2023/08/20 10:55:08;;;;;;;5.35;3.20;;;;;;;30.16;28.97;94976.38;5093194;28;20038;-74
2023/08/20 10:57:34;;;;;;;3.60;3.17;;;;;;;30.08;29.48;94966.09;5110233;28;20059;-74
2023/08/20 11:00:00;;;;;;;6.53;3.85;;;;;;;29.83;29.61;94958.47;5093391;28;20024;-74
2023/08/20 11:02:26;;;;;;;8.15;3.80;;;;;;;30.02;29.15;94961.72;5093055;28;20031;-74
2023/08/20 11:04:53;;;;;;;5.50;3.33;;;;;;;29.91;29.68;94962.63;5076682;28;20063;-74
2023/08/20 11:07:19;;;;;;;4.28;3.40;;;;;;;30.02;29.71;94961.72;5093368;28;20065;-74
2023/08/20 11:09:44;;;;;;;4.68;3.40;;;;;;;29.88;30.08;94965.78;5093342;28;20491;-74
2023/08/20 11:12:10;;;;;;;6.80;3.42;;;;;;;29.94;29.59;94951.41;5109881;28;20106;-74
2023/08/20 11:14:35;;;;;;;4.20;3.25;;;;;;;30.09;29.86;94954.34;5093047;28;20497;-74
2023/08/20 11:17:01;;;;;;;4.50;2.97;;;;;;;30.23;30.65;94958.31;5093016;28;20032;-74
2023/08/20 11:19:26;;;;;;;3.80;3.15;;;;;;;30.19;30.42;94950.97;5092860;28;20034;-74
2023/08/20 11:21:51;;;;;;;3.72;3.20;;;;;;;30.40;30.08;94949.44;5093012;28;20401;-74
2023/08/20 11:24:20;;;;;;;4.57;3.20;;;;;;;30.54;28.78;94961.41;5092930;28;20028;-74
2023/08/20 11:26:46;;;;;;;6.60;3.53;;;;;;;30.32;29.54;94942.63;5111184;28;20103;-74
2023/08/20 11:29:19;;;;;;;5.05;3.40;;;;;;;30.39;28.84;94955.84;5092863;28;20477;-74